Latest Coastal Weather Observations for Bellambi

IDN60701

Issued at 3:21 pm EST Sunday 24 May 2015 (issued every 10 minutes, with the page automatically refreshed every 10 minutes)

About coastal observations | Map of coastal stations | Coastal observations for NSW | Marine services | Other Formats
Station Details ID: 068228 Name: BELLAMBI AWS Lat: -34.37 Lon: 150.93 Height: 10.0 m
Data from the previous 72 hours. | See also: Recent months at Bellambi
Date/Time
EST
Temp

°C
Wind Pressure Rain
since 9am
mm
Weather Cloud Vis
km
Sea
Height
m
Swell
Dir
 
Speed
knots
Gust
knots
hPa Trend Height
m
Period
s
Dir
24/03:00pm 17.3 E 3 5 - - 0.0 - - - - - - -
24/02:30pm 17.2 ESE 4 5 - - 0.0 - - - - - - -
24/02:00pm 17.4 SE 2 5 - - 0.0 - - - - - - -
24/01:30pm 17.2 SE 4 6 - - 0.0 - - - - - - -
24/01:00pm 17.1 SE 4 6 - - 0.0 - - - - - - -
24/12:30pm 17.2 S 4 6 - - 0.0 - - - - - - -
24/12:00pm 17.1 S 6 9 - - 0.0 - - - - - - -
24/11:30am 16.7 S 7 10 - - 0.0 - - - - - - -
24/11:00am 16.4 S 9 11 - - 0.0 - - - - - - -
24/10:30am 16.4 SSW 8 10 - - 0.0 - - - - - - -
24/10:00am 16.2 SSW 7 10 - - 0.0 - - - - - - -
24/09:30am 15.7 SSW 7 9 - - 0.0 - Partly cloudy - - - - -
24/09:00am 14.2 WSW 5 7 - - 0.0 - - - - - - -
24/08:30am 12.7 WSW 6 7 - - 0.0 - Partly cloudy - - - - -
24/08:00am 11.9 W 6 7 - - 0.0 - Partly cloudy - - - - -
24/07:30am 11.5 W 6 7 - - 0.0 - Partly cloudy - - - - -
24/07:00am 11.2 W 6 7 - - 0.0 - Partly cloudy - - - - -
24/06:30am 11.3 WNW 7 9 - - 0.0 - Cloudy - - - - -
24/06:00am 11.0 WNW 5 6 - - 0.0 - Partly cloudy - - - - -
24/05:30am 10.7 WNW 9 11 - - 0.0 - Partly cloudy - - - - -
24/05:00am 10.4 WNW 6 7 - - 0.0 - - - - - - -
24/04:30am 10.7 W 6 7 - - 0.0 - - - - - - -
24/04:00am 11.1 W 7 8 - - 0.0 - - - - - - -
24/03:30am 11.7 W 8 9 - - 0.0 - - - - - - -
24/03:00am 11.2 WSW 8 9 - - 0.0 - - - - - - -
24/02:30am 11.3 W 7 8 - - 0.0 - - - - - - -
24/02:00am 11.5 WSW 8 9 - - 0.0 - - - - - - -
24/01:30am 11.2 W 7 8 - - 0.0 - - - - - - -
24/01:00am 11.4 W 7 8 - - 0.0 - - - - - - -
24/12:30am 11.3 W 7 8 - - 0.0 - - - - - - -
24/12:00am 11.3 W 8 9 - - 0.0 - - - - - - -
 
Date/Time
EST
Temp

°C
Wind Pressure Rain
since 9am
mm
Weather Cloud Vis
km
Sea
Height
m
Swell
Dir
 
Speed
knots
Gust
knots
hPa Trend Height
m
Period
s
Dir
23/11:30pm 11.4 W 6 7 - - 0.0 - - - - - - -
23/11:00pm 11.9 W 7 8 - - 0.0 - - - - - - -
23/10:30pm 11.7 W 7 7 - - 0.0 - - - - - - -
23/10:00pm 11.6 W 6 7 - - 0.0 - - - - - - -
23/09:30pm 12.0 W 7 8 - - 0.0 - - - - - - -
23/09:00pm 11.8 WSW 8 9 - - 0.0 - - - - - - -
23/08:30pm 11.6 W 6 7 - - 0.0 - - - - - - -
23/08:00pm 11.8 WSW 7 9 - - 0.0 - - - - - - -
23/07:30pm 12.1 WSW 8 10 - - 0.0 - - - - - - -
23/07:00pm 12.3 WSW 8 10 - - 0.0 - - - - - - -
23/06:30pm 12.6 WSW 8 10 - - 0.0 - - - - - - -
23/06:00pm 12.7 WSW 8 10 - - 0.0 - - - - - - -
23/05:30pm 13.1 WSW 8 9 - - 0.0 - - - - - - -
23/05:00pm 15.4 S 10 14 - - 0.0 - - - - - - -
23/04:30pm 15.5 S 10 13 - - 0.0 - - - - - - -
23/04:00pm 15.9 S 9 11 - - 0.0 - - - - - - -
23/03:30pm 16.0 SSE 11 15 - - 0.0 - - - - - - -
23/03:00pm 16.1 S 13 16 - - 0.0 - - - - - - -
23/02:30pm 16.2 S 13 16 - - 0.0 - Partly cloudy - - - - -
23/02:00pm 16.5 SSW 12 16 - - 0.0 - Partly cloudy - - - - -
23/01:30pm 17.2 SSW 11 18 - - 0.0 - Partly cloudy - - - - -
23/01:00pm 16.4 SSW 12 17 - - 0.0 - Partly cloudy - - - - -
23/12:30pm 16.6 SW 11 15 - - 0.0 - Partly cloudy - - - - -
23/12:00pm 16.6 SSW 14 18 - - 0.0 - Mostly clear - - - - -
23/11:30am 16.0 SW 15 20 - - 0.0 - Partly cloudy - - - - -
23/11:00am 16.1 SW 14 18 - - 0.0 - - - - - - -
23/10:30am 15.7 SSW 14 17 - - 0.0 - Cloudy - - - - -
23/10:00am 15.2 SW 13 18 - - 0.0 - Partly cloudy - - - - -
23/09:30am 14.9 SW 12 17 - - 0.0 - Partly cloudy - - - - -
23/09:00am 14.3 SW 10 15 - - 17.6 - Partly cloudy - - - - -
23/08:30am 13.9 SW 12 17 - - 17.6 - Partly cloudy - - - - -
23/08:00am 13.1 SW 11 16 - - 17.6 - - - - - - -
23/07:30am 12.3 SW 10 15 - - 17.6 - Partly cloudy - - - - -
23/07:00am 12.1 SW 11 16 - - 17.6 - Partly cloudy - - - - -
23/06:30am 12.3 SW 11 14 - - 17.6 - Cloudy - - - - -
23/06:00am 12.3 SW 11 16 - - 17.6 - Mostly cloudy - - - - -
23/05:30am 12.3 SW 12 16 - - 17.6 - Cloudy - - - - -
23/05:00am 12.3 SW 12 19 - - 17.6 - Cloudy - - - - -
23/04:30am 12.2 SW 13 17 - - 17.6 - Cloudy - - - - -
23/04:00am 12.2 SW 12 16 - - 17.6 - Cloudy - - - - -
23/03:30am 12.1 SW 13 19 - - 17.6 - Cloudy - - - - -
23/03:00am 12.2 SW 14 18 - - 17.6 - Cloudy - - - - -
23/02:30am 12.3 SW 15 20 - - 17.6 - Cloudy - - - - -
23/02:00am 12.4 SW 14 19 - - 17.6 - Partly cloudy - - - - -
23/01:30am 12.2 SW 13 20 - - 17.6 - Partly cloudy - - - - -
23/01:00am 11.8 SW 12 17 - - 17.6 - Partly cloudy - - - - -
23/12:30am 12.1 SW 15 21 - - 17.6 - Partly cloudy - - - - -
23/12:00am 12.0 SW 12 18 - - 17.6 Rain Cloudy - - - - -
 
Date/Time
EST
Temp

°C
Wind Pressure Rain
since 9am
mm
Weather Cloud Vis
km
Sea
Height
m
Swell
Dir
 
Speed
knots
Gust
knots
hPa Trend Height
m
Period
s
Dir
22/11:52pm 12.0 SW 13 19 - - 17.6 - Partly cloudy - - - - -
22/11:30pm 12.2 SW 14 21 - - 17.2 - Partly cloudy - - - - -
22/11:29pm 12.2 SW 14 21 - - 17.2 - Partly cloudy - - - - -
22/11:26pm 12.0 SW 13 21 - - 17.2 - Partly cloudy - - - - -
22/11:11pm 11.9 SW 14 20 - - 16.4 - Partly cloudy - - - - -
22/11:05pm 11.9 SW 13 20 - - 16.4 - Partly cloudy - - - - -
22/11:00pm 11.8 SW 13 20 - - 16.2 - Partly cloudy - - - - -
22/10:46pm 12.0 SW 13 19 - - 16.0 - Partly cloudy - - - - -
22/10:30pm 12.1 SW 12 16 - - 16.0 - Partly cloudy - - - - -
22/10:00pm 12.0 SW 13 17 - - 15.6 - Partly cloudy - - - - -
22/09:30pm 12.0 SW 10 14 - - 15.0 - Partly cloudy - - - - -
22/09:00pm 12.0 SW 10 15 - - 15.0 Recent precip. Mostly cloudy - - - - -
22/08:30pm 12.2 SW 13 19 - - 15.0 - Partly cloudy - - - - -
22/08:00pm 12.3 SW 15 19 - - 13.8 - Partly cloudy - - - - -
22/07:30pm 12.9 SSW 19 26 - - 13.6 - Partly cloudy - - - - -
22/07:00pm 12.5 SW 15 20 - - 11.8 - Partly cloudy - - - - -
22/06:30pm 12.8 SW 15 22 - - 9.0 - Partly cloudy - - - - -
22/06:07pm 14.1 SSW 22 31 - - 8.6 - Partly cloudy - - - - -
22/06:02pm 14.5 SW 17 31 - - 8.6 - Partly cloudy - - - - -
22/06:00pm 14.0 SW 15 29 - - 8.6 Recent precip. Cloudy - - - - -
22/05:36pm 13.9 S 26 35 - - 8.6 - Partly cloudy - - - - -
22/05:30pm 14.4 S 25 35 - - 8.6 - Partly cloudy - - - - -
22/05:23pm 13.4 SSW 27 39 - - 8.6 - Partly cloudy - - - - -
22/05:19pm 12.9 SSW 26 39 - - 8.6 - Partly cloudy - - - - -
22/05:04pm 14.7 SSW 23 44 - - 8.2 - Partly cloudy - - - - -
22/05:00pm 14.2 SSW 22 32 - - 8.2 - Partly cloudy - - - - -
22/04:31pm 13.1 SSW 26 39 - - 7.4 - Partly cloudy - - - - -
22/04:30pm 13.4 SSW 25 34 - - 7.4 - Partly cloudy - - - - -
22/04:05pm 13.5 SSW 25 35 - - 6.0 - Partly cloudy - - - - -
22/04:00pm 13.4 SSW 26 35 - - 6.0 - Partly cloudy - - - - -
22/03:30pm 13.7 SSW 25 35 - - 4.4 - Partly cloudy - - - - -
22/03:23pm 13.9 SSW 23 35 - - 4.2 - Partly cloudy - - - - -
22/03:09pm 14.7 SSW 28 42 - - 3.4 - Partly cloudy - - - - -
22/03:05pm 14.6 SSW 32 42 - - 3.4 - Partly cloudy - - - - -
22/03:00pm 14.6 SSW 33 41 - - 3.4 Rain Cloudy - - - - -
22/02:56pm 13.9 SSW 29 40 - - 3.4 - Partly cloudy - - - - -
22/02:50pm 14.6 SSW 23 33 - - 3.2 - Partly cloudy - - - - -
22/02:45pm 14.7 SSW 25 35 - - 3.2 - Partly cloudy - - - - -
22/02:30pm 15.6 S 33 43 - - 3.2 - Partly cloudy - - - - -
22/02:28pm 15.5 S 33 43 - - 3.2 - Partly cloudy - - - - -
22/02:00pm 16.3 S 35 44 - - 3.2 - Partly cloudy - - - - -
22/01:47pm 16.4 SSW 29 43 - - 3.2 - Partly cloudy - - - - -
22/01:43pm 15.8 SSW 25 37 - - 3.2 - Partly cloudy - - - - -
22/01:30pm 14.8 SSW 23 31 - - 3.2 - Partly cloudy - - - - -
22/01:00pm 14.3 SSW 24 33 - - 3.2 - Partly cloudy - - - - -
22/12:30pm 13.6 SW 26 39 - - 3.2 - Partly cloudy - - - - -
22/12:26pm 13.8 SW 29 39 - - 3.2 - Partly cloudy - - - - -
22/12:16pm 14.2 SSW 27 37 - - 3.0 - Partly cloudy - - - - -
22/12:07pm 14.2 SW 19 29 - - 3.0 - Partly cloudy - - - - -
22/12:00pm 13.8 SW 17 24 - - 3.0 Recent precip. Cloudy - - - - -
22/11:30am 13.8 SSW 31 46 - - 2.4 - Partly cloudy - - - - -
22/11:29am 13.7 SSW 32 46 - - 2.2 - Partly cloudy - - - - -
22/11:26am 14.2 SSW 35 46 - - 2.0 - Partly cloudy - - - - -
22/11:00am 14.5 SSW 38 49 - - 1.6 - Partly cloudy - - - - -
22/10:30am 16.7 S 35 45 - - 1.4 - Partly cloudy - - - - -
22/10:08am 16.5 S 34 44 - - 1.4 - Partly cloudy - - - - -
22/10:00am 16.7 S 34 43 - - 1.4 - Partly cloudy - - - - -
22/09:30am 15.4 S 35 42 - - 1.4 - Partly cloudy - - - - -
22/09:02am 15.7 S 23 37 - - 0.0 - Partly cloudy - - - - -
22/09:00am 15.9 S 21 32 - - 13.4 Rain Cloudy - - - - -
22/08:58am 15.9 SSW 19 31 - - 13.2 - Partly cloudy - - - - -
22/08:36am 14.3 S 21 31 - - 10.8 - Partly cloudy - - - - -
22/08:34am 14.8 SSE 23 31 - - 9.2 - Partly cloudy - - - - -
22/08:30am 16.1 SSE 24 31 - - 7.2 - Partly cloudy - - - - -
22/08:00am 16.0 SSE 22 27 - - 6.8 - Partly cloudy - - - - -
22/07:31am 15.5 S 26 33 - - 6.4 - Partly cloudy - - - - -
22/07:30am 15.7 S 26 35 - - 6.4 - Partly cloudy - - - - -
22/07:10am 15.2 SSW 17 30 - - 5.4 - Partly cloudy - - - - -
22/07:00am 13.6 SW 18 29 - - 5.0 - Partly cloudy - - - - -
22/06:54am 13.6 SW 16 29 - - 4.8 - Partly cloudy - - - - -
22/06:52am 13.4 SW 15 28 - - 4.8 - Partly cloudy - - - - -
22/06:30am 13.1 SW 15 22 - - 3.8 - Partly cloudy - - - - -
22/06:00am 13.7 SW 14 20 - - 0.4 Recent precip. Cloudy - - - - -
22/05:30am 13.7 SW 12 17 - - 0.4 - Partly cloudy - - - - -
22/05:00am 13.4 SW 16 23 - - 0.2 - Partly cloudy - - - - -
22/04:30am 13.1 SW 15 20 - - 0.2 - Partly cloudy - - - - -
22/04:00am 13.5 SW 15 22 - - 0.0 - Partly cloudy - - - - -
22/03:30am 14.6 SW 15 21 - - 0.0 - Partly cloudy - - - - -
22/03:00am 14.3 SW 14 22 - - 0.0 - Cloudy - - - - -
22/02:30am 14.2 SW 14 18 - - 0.0 - Partly cloudy - - - - -
22/02:00am 14.0 SW 14 19 - - 0.0 - - - - - - -
22/01:30am 14.1 SW 14 19 - - 0.0 - - - - - - -
22/01:00am 14.4 SW 15 20 - - 0.0 - Partly cloudy - - - - -
22/12:30am 14.7 SW 15 21 - - 0.0 - Partly cloudy - - - - -
22/12:00am 14.9 SW 16 23 - - 0.0 - Cloudy - - - - -
 
Date/Time
EST
Temp

°C
Wind Pressure Rain
since 9am
mm
Weather Cloud Vis
km
Sea
Height
m
Swell
Dir
 
Speed
knots
Gust
knots
hPa Trend Height
m
Period
s
Dir
21/11:30pm 15.1 SW 19 27 - - 0.0 - - - - - - -
21/11:00pm 14.5 SW 13 18 - - 0.0 - - - - - - -
21/10:30pm 14.4 SW 10 13 - - 0.0 - - - - - - -
21/10:00pm 14.3 SW 11 14 - - 0.0 - - - - - - -
21/09:30pm 14.5 SW 12 16 - - 0.0 - - - - - - -
21/09:00pm 14.6 SW 12 17 - - 0.0 - - - - - - -
21/08:30pm 14.5 SW 9 13 - - 0.0 - - - - - - -
21/08:00pm 14.7 SW 8 10 - - 0.0 - - - - - - -
21/07:30pm 15.0 SW 10 13 - - 0.0 - Partly cloudy - - - - -
21/07:00pm 15.4 SW 12 16 - - 0.0 - Partly cloudy - - - - -
21/06:30pm 15.9 SW 14 19 - - 0.0 - Partly cloudy - - - - -
21/06:00pm 16.6 SW 14 21 - - 0.0 - Cloudy - - - - -
21/05:30pm 16.9 SSW 19 23 - - 0.0 - Partly cloudy - - - - -
21/05:00pm 17.4 S 23 28 - - 0.0 - Partly cloudy - - - - -
21/04:30pm 18.0 S 19 21 - - 0.0 - - - - - - -
21/04:00pm 18.0 S 19 22 - - 0.0 - - - - - - -
21/03:30pm 18.3 S 18 20 - - 0.0 - - - - - - -

Other Formats:

Comma delimited format used in spreadsheet applications
http://www.bom.gov.au/fwo/IDN60701/IDN60701.94749.axf

JavaScript Object Notation format (JSON) in row-major order
http://www.bom.gov.au/fwo/IDN60701/IDN60701.94749.json